Time;durP1;ratioP1;P1;durP2;ratioP2;P2;SDS_P1;SDS_P2;PMS_P1;PMS_P2;Temp;Humidity;BMP_temperature;BMP_pressure;BME280_temperature;BME280_humidity;BME280_pressure;Samples;Min_cycle;Max_cycle;Signal;HPM_P1;HPM_P2
2022/02/10 00:13:57;;;;;;;10.73;8.07;;;9.10;1.00;;;;;;5084160;28;20424;-81
2022/02/10 00:22:17;;;;;;;10.17;7.77;;;9.00;1.00;;;;;;5047941;28;20486;-82
2022/02/10 00:35:49;;;;;;;11.30;7.93;;;9.00;1.00;;;;;;5081730;28;20467;-83
2022/02/10 00:38:18;;;;;;;9.30;8.03;;;9.00;1.00;;;;;;5081552;28;20898;-81
2022/02/10 00:40:44;;;;;;;13.13;8.63;;;9.00;1.00;;;;;;5080970;28;20453;-81
2022/02/10 00:43:13;;;;;;;11.77;9.20;;;9.00;1.00;;;;;;5080858;28;20515;-82
2022/02/10 00:45:44;;;;;;;14.53;10.60;;;9.20;1.00;;;;;;5101309;22;20472;-83
2022/02/10 00:48:12;;;;;;;14.90;12.00;;;8.70;1.00;;;;;;5058965;28;20501;-83
2022/02/10 00:50:40;;;;;;;19.90;14.53;;;9.00;1.00;;;;;;5058326;28;20467;-84
2022/02/10 00:53:13;;;;;;;17.97;14.87;;;9.00;1.00;;;;;;5058349;28;20439;-84
2022/02/10 00:55:42;;;;;;;20.63;16.73;;;9.00;1.00;;;;;;5049071;28;20453;-84
2022/02/10 00:58:12;;;;;;;23.27;16.00;;;9.00;1.00;;;;;;5043310;28;20420;-83
2022/02/10 01:31:10;;;;;;;10.40;8.10;;;8.90;1.00;;;;;;5042917;28;20409;-83
2022/02/10 01:33:40;;;;;;;9.23;7.43;;;9.00;1.00;;;;;;5043186;28;20450;-83
2022/02/10 01:36:07;;;;;;;10.83;7.63;;;8.90;1.00;;;;;;5053519;28;20470;-83
2022/02/10 01:38:34;;;;;;;8.43;7.03;;;8.90;1.00;;;;;;5051910;28;20450;-83
2022/02/10 01:57:50;;;;;;;8.47;7.53;;;8.80;3.00;;;;;;5050898;28;20420;-84
2022/02/10 02:05:49;;;;;;;8.23;7.23;;;8.80;1.00;;;;;;5051673;28;20433;-84
2022/02/10 02:08:22;;;;;;;8.20;6.73;;;8.90;3.80;;;;;;5054034;28;20489;-84
2022/02/10 02:10:48;;;;;;;10.17;7.13;;;8.80;1.00;;;;;;5052378;28;20405;-84
2022/02/10 02:13:15;;;;;;;8.73;7.80;;;8.80;1.00;;;;;;5052369;28;20445;-83
2022/02/10 02:15:41;;;;;;;7.17;6.50;;;8.80;1.00;;;;;;5051760;28;20503;-83
2022/02/10 02:18:08;;;;;;;7.47;6.77;;;8.80;1.00;;;;;;5050966;28;20481;-84
2022/02/10 02:20:35;;;;;;;7.90;6.80;;;8.70;3.00;;;;;;5050408;28;20446;-84
2022/02/10 02:23:04;;;;;;;8.37;6.83;;;8.70;24.40;;;;;;5049601;28;20450;-83
2022/02/10 02:25:30;;;;;;;8.23;7.20;;;8.70;8.60;;;;;;5048025;28;20449;-84
2022/02/10 02:27:58;;;;;;;9.23;8.20;;;8.70;18.00;;;;;;5044016;28;20461;-84
2022/02/10 02:30:32;;;;;;;9.67;7.33;;;8.80;30.10;;;;;;5048538;28;20530;-84
2022/02/10 02:33:27;;;;;;;9.50;6.27;;;8.60;23.70;;;;;;5053426;28;20437;-84
2022/02/10 02:36:23;;;;;;;9.90;6.80;;;8.70;19.80;;;;;;5054110;28;20441;-84
2022/02/10 02:39:18;;;;;;;9.23;6.03;;;8.70;18.50;;;;;;5055072;28;20447;-83
2022/02/10 03:06:28;;;;;;;8.30;6.37;;;8.70;2.10;;;;;;5041818;28;20425;-83
2022/02/10 03:08:58;;;;;;;12.40;6.50;;;8.70;3.00;;;;;;5040533;28;20481;-85
2022/02/10 03:11:26;;;;;;;9.20;6.73;;;8.70;1.00;;;;;;5040486;28;20460;-84
2022/02/10 03:13:57;;;;;;;9.37;6.57;;;8.70;4.70;;;;;;5052496;28;20435;-84
2022/02/10 03:19:21;;;;;;;8.60;6.53;;;8.70;17.20;;;;;;5059315;28;20438;-83
2022/02/10 03:22:05;;;;;;;10.03;7.90;;;8.70;47.30;;;;;;5059542;28;20401;-83
2022/02/10 04:03:15;;;;;;;9.07;6.63;;;8.50;37.00;;;;;;5044039;28;20403;-84
2022/02/10 04:08:35;;;;;;;7.50;6.77;;;8.50;54.40;;;;;;5046704;28;20429;-84
2022/02/10 04:11:16;;;;;;;6.73;6.00;;;8.40;99.90;;;;;;5046823;28;20438;-84
2022/02/10 04:13:54;;;;;;;7.50;6.13;;;8.40;81.70;;;;;;5044011;28;20779;-84
2022/02/10 04:16:26;;;;;;;8.50;6.53;;;8.40;99.90;;;;;;5045071;28;20462;-84
2022/02/10 04:21:49;;;;;;;9.63;6.37;;;8.40;51.00;;;;;;5045277;28;20381;-83
2022/02/10 04:24:40;;;;;;;7.63;6.70;;;8.50;28.30;;;;;;5047862;28;20449;-83
2022/02/10 04:27:13;;;;;;;17.73;7.13;;;8.50;39.10;;;;;;5045212;28;20487;-84
2022/02/10 04:30:06;;;;;;;7.87;6.40;;;8.50;29.30;;;;;;5044689;28;20441;-83
2022/02/10 04:37:23;;;;;;;8.17;6.00;;;8.40;38.50;;;;;;5043716;28;20439;-84
2022/02/10 04:44:38;;;;;;;8.37;6.87;;;8.40;53.10;;;;;;5038086;28;20431;-84
2022/02/10 04:55:42;;;;;;;8.43;7.70;;;8.40;78.20;;;;;;5037921;28;20497;-85
2022/02/10 04:58:28;;;;;;;12.73;7.70;;;8.40;67.80;;;;;;5038691;28;20458;-85
2022/02/10 05:01:11;;;;;;;9.70;7.40;;;8.40;92.40;;;;;;5039371;28;20521;-84
2022/02/10 05:07:07;;;;;;;9.60;7.00;;;8.40;83.70;;;;;;5028480;28;20422;-85
2022/02/10 05:15:33;;;;;;;9.43;7.43;;;8.50;38.60;;;;;;5039020;28;20287;-85
2022/02/10 05:18:13;;;;;;;9.87;7.20;;;8.50;33.50;;;;;;5038166;28;20420;-85
2022/02/10 05:21:03;;;;;;;9.80;8.20;;;8.30;80.80;;;;;;5039486;28;20434;-85
2022/02/10 05:23:53;;;;;;;9.10;7.70;;;8.40;48.40;;;;;;5040254;28;20181;-85
2022/02/10 05:32:06;;;;;;;13.10;7.47;;;8.40;38.10;;;;;;5051450;28;20486;-84
2022/02/10 05:34:39;;;;;;;8.23;6.93;;;8.30;64.40;;;;;;5040012;28;20413;-85
2022/02/10 05:37:06;;;;;;;7.43;6.60;;;8.30;65.50;;;;;;5038131;28;20923;-85
2022/02/10 05:39:38;;;;;;;7.20;6.50;;;8.40;46.50;;;;;;5039594;28;20504;-85
2022/02/10 05:42:43;;;;;;;11.23;7.57;;;8.30;72.90;;;;;;5039254;28;20438;-85
2022/02/10 05:45:18;;;;;;;10.30;7.63;;;8.30;19.50;;;;;;5037646;28;20424;-85
2022/02/10 05:48:11;;;;;;;7.43;6.70;;;8.30;14.60;;;;;;5058407;28;20409;-85
2022/02/10 05:56:23;;;;;;;7.53;6.73;;;8.30;27.30;;;;;;4990363;28;20453;-85
2022/02/10 05:59:18;;;;;;;9.93;8.23;;;8.30;1.00;;;;;;4981355;28;20415;-86
2022/02/10 06:02:16;;;;;;;18.98;7.05;;;8.30;1.00;;;;;;5020160;28;20481;-85
2022/02/10 06:52:04;;;;;;;10.63;8.20;;;8.30;10.80;;;;;;5044948;28;20432;-81
2022/02/10 06:54:45;;;;;;;9.30;7.00;;;8.30;1.00;;;;;;5082132;28;20777;-83
2022/02/10 07:05:48;;;;;;;10.10;7.13;;;8.30;1.00;;;;;;5073889;28;20415;-81
2022/02/10 07:08:29;;;;;;;8.97;7.37;;;8.30;1.00;;;;;;5085775;28;20781;-81
2022/02/10 07:14:06;;;;;;;8.90;7.67;;;8.30;1.00;;;;;;5086163;28;20903;-80
2022/02/10 07:49:53;;;;;;;9.40;8.33;;;8.40;1.00;;;;;;5081226;28;20529;-81
2022/02/10 07:52:42;;;;;;;8.93;7.30;;;8.40;1.00;;;;;;5080751;28;20908;-81
2022/02/10 07:58:06;;;;;;;13.93;10.07;;;8.40;1.00;;;;;;5084334;28;20439;-82
2022/02/10 08:00:55;;;;;;;8.53;7.17;;;9.00;1.00;;;;;;5088784;28;20407;-81
2022/02/10 08:56:38;;;;;;;8.10;6.93;;;9.00;1.00;;;;;;5053022;28;20456;-82
2022/02/10 08:59:31;;;;;;;7.57;6.70;;;9.10;1.00;;;;;;5080207;28;20435;-83
2022/02/10 09:04:54;;;;;;;7.50;6.40;;;9.20;1.00;;;;;;5079972;28;20415;-82
2022/02/10 09:07:48;;;;;;;8.40;7.40;;;9.20;1.00;;;;;;5078992;28;20794;-83
2022/02/10 09:10:53;;;;;;;10.63;7.40;;;9.20;1.00;;;;;;5081773;28;20491;-82
2022/02/10 09:13:30;;;;;;;9.93;8.00;;;9.30;1.00;;;;;;5097089;28;20479;-83
2022/02/10 09:19:04;;;;;;;8.70;7.30;;;9.30;1.00;;;;;;5078915;28;20750;-83
2022/02/10 09:21:55;;;;;;;12.67;7.63;;;9.50;1.00;;;;;;5083247;28;20399;-80
2022/02/10 09:53:35;;;;;;;8.10;6.90;;;9.80;99.90;;;;;;5051753;28;20407;-83
2022/02/10 10:00:49;;;;;;;10.60;7.80;;;10.00;1.00;;;;;;5089980;28;20392;-82
2022/02/10 10:03:22;;;;;;;13.00;8.77;;;10.00;1.00;;;;;;5095167;28;20418;-82
2022/02/10 10:05:58;;;;;;;11.00;7.60;;;10.20;99.90;;;;;;5095450;28;20396;-81
2022/02/10 10:08:38;;;;;;;10.50;6.90;;;9.90;99.90;;;;;;5083953;28;20487;-82
2022/02/10 10:14:16;;;;;;;10.60;7.70;;;10.00;99.90;;;;;;5086464;28;20379;-82
2022/02/10 10:17:01;;;;;;;7.13;6.43;;;10.10;99.90;;;;;;5080804;28;20481;-82
2022/02/10 10:23:13;;;;;;;10.40;7.77;;;10.10;99.90;;;;;;5076256;28;20553;-83
2022/02/10 10:49:03;;;;;;;9.73;6.90;;;10.40;99.90;;;;;;5089970;28;20457;-83
2022/02/10 10:51:18;;;;;;;8.63;7.30;;;10.40;99.90;;;;;;5090826;28;20482;-81
2022/02/10 10:53:51;;;;;;;7.53;6.23;;;10.30;99.90;;;;;;5089615;28;20445;-81
2022/02/10 10:56:25;;;;;;;13.07;7.10;;;10.30;99.90;;;;;;5087946;28;20445;-82
2022/02/10 10:59:13;;;;;;;9.67;7.20;;;10.20;99.90;;;;;;5086702;28;20477;-80
2022/02/10 11:22:11;;;;;;;11.07;7.40;;;10.40;99.90;;;;;;5080964;28;20978;-83
2022/02/10 11:39:02;;;;;;;9.00;7.37;;;11.00;99.90;;;;;;5083237;28;20437;-82
2022/02/10 11:41:46;;;;;;;9.17;6.27;;;11.00;99.90;;;;;;5082703;28;20466;-82
2022/02/10 12:39:12;;;;;;;14.03;9.57;;;10.70;99.90;;;;;;5084302;28;20416;-83
2022/02/10 12:42:47;;;;;;;11.37;8.23;;;10.70;99.90;;;;;;5085238;28;20471;-83
2022/02/10 14:13:34;;;;;;;1.60;1.50;;;7.90;99.90;;;;;;5036596;28;20447;-84
2022/02/10 14:16:30;;;;;;;1.10;1.00;;;7.30;99.90;;;;;;5035455;28;20679;-85
2022/02/10 14:19:07;;;;;;;1.52;1.42;;;6.90;99.90;;;;;;5025615;28;20216;-83
2022/02/10 14:21:45;;;;;;;1.38;1.27;;;6.60;99.90;;;;;;5022051;28;20299;-85
2022/02/10 14:26:56;;;;;;;1.73;1.60;;;6.40;99.90;;;;;;5022386;28;20647;-85
2022/02/10 14:29:22;;;;;;;3.90;3.00;;;6.30;99.90;;;;;;5023361;28;20211;-85
2022/02/10 14:31:53;;;;;;;2.05;1.85;;;6.00;99.90;;;;;;5028231;28;20224;-84
2022/02/10 14:34:28;;;;;;;4.93;2.25;;;6.30;99.90;;;;;;5034052;28;20172;-84
2022/02/10 14:37:15;;;;;;;3.05;1.80;;;6.30;99.90;;;;;;5033096;28;20207;-84
2022/02/10 14:40:01;;;;;;;1.70;1.60;;;6.40;99.90;;;;;;5033732;28;20261;-84
2022/02/10 15:14:12;;;;;;;2.13;1.92;;;6.20;99.90;;;;;;5038206;28;20226;-84
2022/02/10 15:16:32;;;;;;;5.10;1.90;;;6.10;99.90;;;;;;5032717;28;20231;-84
2022/02/10 15:22:03;;;;;;;2.72;1.90;;;6.20;99.90;;;;;;5028985;28;20276;-83
2022/02/10 15:36:06;;;;;;;2.95;2.65;;;6.30;99.90;;;;;;5026389;28;20196;-85
2022/02/10 15:49:56;;;;;;;4.03;3.40;;;6.30;99.90;;;;;;5016763;28;20244;-84
2022/02/10 15:55:34;;;;;;;2.92;2.40;;;6.40;99.90;;;;;;5039268;28;20187;-84
2022/02/10 16:12:26;;;;;;;3.05;2.75;;;6.30;99.90;;;;;;5038211;28;20263;-85
2022/02/10 16:14:57;;;;;;;2.95;2.75;;;6.20;99.90;;;;;;5039559;28;20206;-84
2022/02/10 16:17:26;;;;;;;6.28;3.40;;;6.30;99.90;;;;;;5040076;28;20231;-84
2022/02/10 16:19:54;;;;;;;8.02;4.65;;;6.30;99.90;;;;;;5040085;28;20212;-84
2022/02/10 16:22:26;;;;;;;4.65;3.42;;;6.30;99.90;;;;;;5038612;28;20209;-84
2022/02/10 16:25:06;;;;;;;4.57;3.40;;;6.30;99.90;;;;;;5038446;28;20507;-84
2022/02/10 16:27:35;;;;;;;6.65;4.15;;;6.30;99.90;;;;;;5036478;28;20192;-84
2022/02/10 16:30:12;;;;;;;6.05;3.47;;;6.30;99.90;;;;;;5039005;28;20228;-84
2022/02/10 16:32:41;;;;;;;4.47;3.35;;;6.30;99.90;;;;;;5039567;28;20224;-83
2022/02/10 16:35:09;;;;;;;4.53;4.07;;;6.40;99.90;;;;;;5038770;28;20184;-84
2022/02/10 16:37:37;;;;;;;3.92;2.90;;;6.40;99.90;;;;;;5039938;28;20219;-84
2022/02/10 16:40:06;;;;;;;4.00;3.05;;;6.40;99.90;;;;;;5039425;28;20275;-84
2022/02/10 16:42:36;;;;;;;3.60;2.67;;;6.30;99.90;;;;;;5038864;28;20220;-84
2022/02/10 16:45:03;;;;;;;3.50;2.83;;;6.30;99.90;;;;;;5038914;28;20188;-84
2022/02/10 16:47:30;;;;;;;3.28;2.97;;;6.20;99.90;;;;;;5036443;28;20208;-84
2022/02/10 16:50:01;;;;;;;3.28;2.97;;;6.20;99.90;;;;;;5037558;28;20192;-85
2022/02/10 16:52:36;;;;;;;4.30;2.80;;;6.10;99.90;;;;;;5036785;28;20535;-84
2022/02/10 16:55:13;;;;;;;3.15;2.90;;;6.20;99.90;;;;;;5037431;28;20190;-86
2022/02/10 16:57:57;;;;;;;6.60;2.90;;;6.30;99.90;;;;;;5037740;28;20200;-85
2022/02/10 17:00:59;;;;;;;5.22;3.40;;;6.40;99.90;;;;;;5033801;28;20185;-85
2022/02/10 17:03:46;;;;;;;4.18;3.33;;;6.30;99.90;;;;;;5032159;28;20271;-85
2022/02/10 17:17:34;;;;;;;3.10;2.90;;;;;;;;;;4981446;28;20193;-84
2022/02/10 17:20:26;;;;;;;5.40;3.33;;;;;;;;;;5030028;28;20200;-85
2022/02/10 17:25:42;;;;;;;4.18;3.78;;;;;;;;;;5029777;28;20249;-84
2022/02/10 17:28:22;;;;;;;3.70;3.40;;;6.30;99.90;;;;;;5030323;28;20437;-85
2022/02/10 17:33:38;;;;;;;3.65;3.35;;;6.20;99.90;;;;;;5023918;28;20197;-86
2022/02/10 17:36:13;;;;;;;4.20;3.03;;;6.30;99.90;;;;;;5027588;28;20199;-85
2022/02/10 17:44:38;;;;;;;6.55;4.72;;;6.30;99.90;;;;;;5008737;28;20176;-86
2022/02/10 17:52:38;;;;;;;8.38;6.60;;;6.50;99.90;;;;;;5039133;28;20242;-85
2022/02/10 17:55:12;;;;;;;5.47;4.85;;;6.30;99.90;;;;;;5038917;28;20183;-86
2022/02/10 17:57:38;;;;;;;8.18;6.28;;;6.00;99.90;;;;;;5038233;28;20443;-86
2022/02/10 18:00:08;;;;;;;9.98;6.38;;;6.60;99.90;;;;;;5038151;28;20200;-85
2022/02/10 18:02:35;;;;;;;6.53;4.00;;;6.40;99.90;;;;;;5035367;28;20216;-85
2022/02/10 18:05:07;;;;;;;4.38;3.97;;;6.50;99.90;;;;;;5026749;28;20204;-85
2022/02/10 18:07:50;;;;;;;9.32;6.28;;;6.50;99.90;;;;;;5027417;28;20201;-84
2022/02/10 18:13:25;;;;;;;7.47;5.60;;;6.30;99.90;;;;;;4985503;28;20491;-85
2022/02/10 18:16:01;;;;;;;5.60;4.93;;;6.30;99.90;;;;;;5018838;28;20215;-83
2022/02/10 18:18:38;;;;;;;5.80;5.10;;;;;;;;;;5026815;28;20199;-84
2022/02/10 18:21:22;;;;;;;7.20;5.30;;;6.30;99.90;;;;;;5028498;28;20200;-84
2022/02/10 18:24:30;;;;;;;7.28;6.30;;;6.30;99.90;;;;;;5035777;28;20253;-85
2022/02/10 18:27:17;;;;;;;6.55;4.85;;;6.40;99.90;;;;;;5034807;28;20234;-85
2022/02/10 18:30:12;;;;;;;5.75;4.47;;;;;;;;;;5031791;28;20263;-85
2022/02/10 19:09:03;;;;;;;4.10;3.70;;;6.50;99.90;;;;;;5028043;28;20211;-82
2022/02/10 19:11:33;;;;;;;5.40;3.53;;;6.20;99.90;;;;;;5034102;28;20292;-83
2022/02/10 19:14:05;;;;;;;4.35;3.80;;;6.40;99.90;;;;;;5033713;28;20269;-83
2022/02/10 19:16:34;;;;;;;4.10;3.58;;;6.60;99.90;;;;;;5032810;28;20211;-84
2022/02/10 19:19:02;;;;;;;6.03;3.50;;;6.90;99.90;;;;;;5032895;28;20235;-84
2022/02/10 19:24:13;;;;;;;4.03;3.63;;;5.10;99.90;;;;;;5032936;28;20196;-82
2022/02/10 19:26:40;;;;;;;3.65;3.40;;;6.50;99.90;;;;;;5029608;28;20223;-83
2022/02/10 19:29:07;;;;;;;4.57;3.50;;;6.40;99.90;;;;;;5031406;28;20207;-83
2022/02/10 19:31:45;;;;;;;2.90;2.70;;;6.40;99.90;;;;;;5030374;28;20786;-84
2022/02/10 19:34:38;;;;;;;3.00;2.80;;;6.40;99.90;;;;;;5027958;28;20224;-82
2022/02/10 19:37:14;;;;;;;4.90;4.20;;;6.30;99.90;;;;;;5025261;28;20212;-84
2022/02/10 19:44:26;;;;;;;5.45;3.80;;;6.00;99.90;;;;;;4987110;28;20208;-84
2022/02/10 19:47:04;;;;;;;6.40;3.17;;;6.20;99.90;;;;;;5031286;28;20563;-84
2022/02/10 19:49:40;;;;;;;7.40;3.15;;;6.20;99.90;;;;;;5033641;28;20227;-84
2022/02/10 19:52:10;;;;;;;4.28;3.78;;;;;;;;;;5033915;28;20228;-83
2022/02/10 19:54:48;;;;;;;3.50;3.15;;;6.10;99.90;;;;;;5033822;28;20196;-84
2022/02/10 19:57:17;;;;;;;5.35;3.95;;;;;;;;;;5032580;28;20188;-83
2022/02/10 19:59:44;;;;;;;3.75;3.40;;;5.80;99.90;;;;;;5030411;28;20227;-83
2022/02/10 20:02:13;;;;;;;9.30;6.47;;;6.30;99.90;;;;;;5030738;28;20251;-84
2022/02/10 20:04:40;;;;;;;8.25;6.32;;;6.30;99.90;;;;;;5030762;28;20216;-84
2022/02/10 20:07:17;;;;;;;5.72;4.70;;;6.30;99.90;;;;;;5035986;28;20243;-85
2022/02/10 20:09:47;;;;;;;4.55;4.13;;;6.20;99.90;;;;;;5040200;28;20196;-84
2022/02/10 20:40:00;;;;;;;9.60;7.95;;;6.30;99.90;;;;;;4917461;28;20278;-87
2022/02/10 20:49:40;;;;;;;15.23;7.43;;;6.40;99.90;;;;;;4970457;28;20226;-88
2022/02/10 20:52:36;;;;;;;12.13;7.82;;;6.30;99.90;;;;;;5034278;28;20232;-87
2022/02/10 20:55:13;;;;;;;8.23;5.88;;;6.30;99.90;;;;;;5034472;28;20284;-85
2022/02/10 20:57:57;;;;;;;15.00;11.27;;;6.30;99.90;;;;;;5032337;28;20204;-87
2022/02/10 21:01:03;;;;;;;13.55;9.50;;;6.30;99.90;;;;;;5029504;28;20204;-86
2022/02/10 21:11:57;;;;;;;13.18;8.35;;;6.30;99.90;;;;;;5033029;28;20262;-85
2022/02/10 21:14:32;;;;;;;15.10;9.05;;;;;;;;;;5033931;28;20258;-85
2022/02/10 21:17:08;;;;;;;14.20;8.30;;;6.20;99.90;;;;;;5035990;28;20247;-85
2022/02/10 21:19:49;;;;;;;11.45;8.18;;;6.30;99.90;;;;;;5030750;28;20192;-85
2022/02/10 21:38:44;;;;;;;16.23;10.20;;;6.20;99.90;;;;;;5196134;22;20232;-82
2022/02/10 22:04:27;;;;;;;8.75;6.97;;;;;;;;;;5014465;28;20189;-84
2022/02/10 22:26:32;;;;;;;7.43;3.40;;;5.20;99.90;;;;;;4779905;29;20794;-81
2022/02/10 22:29:06;;;;;;;7.22;4.60;;;4.90;99.90;;;;;;5000296;28;20207;-84
2022/02/10 22:31:49;;;;;;;4.53;3.50;;;4.60;99.90;;;;;;5013041;28;20221;-83
2022/02/10 22:34:29;;;;;;;4.28;3.88;;;4.60;99.90;;;;;;5008497;28;20193;-85
2022/02/10 22:37:00;;;;;;;4.65;4.25;;;4.50;99.90;;;;;;5010826;28;20209;-84
2022/02/10 22:39:36;;;;;;;9.75;5.07;;;4.20;99.90;;;;;;5010691;28;20212;-85
2022/02/10 22:42:05;;;;;;;5.93;4.22;;;4.40;99.90;;;;;;5009685;28;20224;-84
2022/02/10 22:51:39;;;;;;;3.15;2.00;;;3.90;99.90;;;;;;4887560;29;20231;-86
2022/02/10 22:54:08;;;;;;;2.78;2.13;;;3.90;99.90;;;;;;4957210;29;20242;-85
2022/02/10 22:56:36;;;;;;;3.22;2.42;;;3.80;99.90;;;;;;5084562;23;20256;-79
2022/02/10 22:59:08;;;;;;;2.83;2.03;;;3.60;99.90;;;;;;5023467;28;20228;-81
2022/02/10 23:01:36;;;;;;;2.88;2.40;;;3.70;99.90;;;;;;5023057;28;20200;-78
2022/02/10 23:04:25;;;;;;;3.38;2.85;;;3.70;99.90;;;;;;5025410;28;20207;-83
2022/02/10 23:06:56;;;;;;;4.88;2.60;;;3.90;99.90;;;;;;5022493;28;20256;-83
2022/02/10 23:09:27;;;;;;;7.95;3.03;;;4.10;99.90;;;;;;5020535;28;20189;-82
2022/02/10 23:11:55;;;;;;;4.40;2.72;;;4.00;99.90;;;;;;5019003;28;20307;-80
2022/02/10 23:14:22;;;;;;;3.13;2.60;;;4.20;99.90;;;;;;5018048;28;20232;-83
2022/02/10 23:16:49;;;;;;;3.55;2.38;;;4.10;99.90;;;;;;5018813;28;20235;-82
2022/02/10 23:19:16;;;;;;;2.83;2.63;;;4.20;99.90;;;;;;5018714;28;20274;-81
2022/02/10 23:21:43;;;;;;;4.60;3.20;;;4.20;99.90;;;;;;5017369;28;20208;-82
2022/02/10 23:24:10;;;;;;;4.75;2.90;;;4.20;99.90;;;;;;5019567;28;20278;-81
2022/02/10 23:26:37;;;;;;;3.75;3.00;;;4.20;99.90;;;;;;5032293;28;20236;-79
2022/02/10 23:29:04;;;;;;;6.03;3.08;;;4.50;99.90;;;;;;5026712;28;20205;-79
2022/02/10 23:31:32;;;;;;;3.20;2.58;;;4.20;99.90;;;;;;5026527;28;20228;-79
2022/02/10 23:34:02;;;;;;;3.88;2.60;;;4.20;99.90;;;;;;5028229;28;20208;-80
2022/02/10 23:36:45;;;;;;;5.97;3.15;;;4.30;99.90;;;;;;5029940;28;20228;-80
2022/02/10 23:39:16;;;;;;;3.97;3.42;;;4.20;99.90;;;;;;5029651;28;20215;-80
2022/02/10 23:44:28;;;;;;;2.80;2.60;;;4.10;99.90;;;;;;5018303;28;20633;-82
2022/02/10 23:46:58;;;;;;;7.22;3.25;;;4.10;99.90;;;;;;5019466;28;20201;-80
2022/02/10 23:49:26;;;;;;;3.67;2.33;;;4.10;99.90;;;;;;5019208;28;20227;-80
2022/02/10 23:51:57;;;;;;;2.50;2.15;;;4.10;99.90;;;;;;5026059;28;20232;-80
2022/02/10 23:54:25;;;;;;;3.58;2.30;;;4.10;99.90;;;;;;5029155;28;20718;-80
2022/02/10 23:56:57;;;;;;;4.63;2.63;;;4.10;99.90;;;;;;5028694;28;20255;-80
2022/02/10 23:59:37;;;;;;;5.00;3.28;;;4.10;99.90;;;;;;5021707;28;20219;-82
